Hiyodori — JD2366 — position and weather

sailwx.info

Track history (hours):
 
Tides and Currents Weather Stations Pressure Air Temp Water Temp Dewpoint Dewpoint Depression Visibility Wind Speed Wind Dir Waves Ship Positions

Hiyodori

Last reported at 2018-Feb-21 10:51 UTC. Time now 2018-Feb-21 11:28 UTC.
Position N 34°33' E 138°10'.

Length 88 m; draft 3.6 m.

Type: Cargo ship. MMSI: 431000132.

Date/timePositionNaut miles runAvg speedWind from/ knotsBaromVisibWave heightAir tempDewpointWater temp
2018-Feb-21 10:51N 34°33' E 138°10'411.7
2018-Feb-21 10:28N 34°34' E 138°16'612.0
2018-Feb-21 09:57N 34°34' E 138°23'512.0
2018-Feb-21 09:30N 34°34' E 138°30'712.0
2018-Feb-21 08:57N 34°35' E 138°38'512.4
2018-Feb-21 08:31N 34°35' E 138°44'813.2
2018-Feb-21 07:53N 34°35' E 138°55'813.4
2018-Feb-21 07:16N 34°41' E 139°02'814.3
2018-Feb-21 06:42N 34°47' E 139°09'1413.1
2018-Feb-21 05:37N 34°55' E 139°22'213.0
2018-Feb-21 05:26N 34°57' E 139°25'613.1
2018-Feb-21 05:00N 35°00' E 139°30'713.7
2018-Feb-21 04:30N 35°04' E 139°37'714.1
2018-Feb-21 04:00N 35°09' E 139°43'713.5
2018-Feb-21 03:30N 35°15' E 139°47'713.4
2018-Feb-21 03:00N 35°21' E 139°42'4 7.3
2018-Feb-21 02:30N 35°24' E 139°41'0 0.0
2018-Feb-21 02:00N 35°24' E 139°41'0 0.0
2018-Feb-21 01:30N 35°24' E 139°41'0 0.0
2018-Feb-21 01:00N 35°24' E 139°41'0 0.0
2018-Feb-21 00:30N 35°24' E 139°41'0 0.0
2018-Feb-20 23:54N 35°24' E 139°41'0 0.0
2018-Feb-20 23:30N 35°24' E 139°41'2 3.6
2018-Feb-20 23:00N 35°22' E 139°41'2 4.8
2018-Feb-20 22:30N 35°20' E 139°42'612.0
2018-Feb-20 22:00N 35°16' E 139°47'611.9
2018-Feb-20 21:30N 35°10' E 139°46'610.9
2018-Feb-20 20:55N 35°04' E 139°43'410.6
2018-Feb-20 20:30N 35°01' E 139°39'710.5
2018-Feb-20 19:50N 34°57' E 139°32'510.2
2018-Feb-20 19:18N 34°54' E 139°26'310.2
2018-Feb-20 19:00N 34°52' E 139°23'5 9.6
2018-Feb-20 18:29N 34°49' E 139°19'510.4
2018-Feb-20 17:59N 34°46' E 139°14'710.7
2018-Feb-20 17:19N 34°41' E 139°07'411.6
2018-Feb-20 16:57N 34°39' E 139°03'612.5
2018-Feb-20 16:30N 34°36' E 138°57'712.9
2018-Feb-20 15:59N 34°35' E 138°49'611.3
2018-Feb-20 15:27N 34°36' E 138°42'511.4
2018-Feb-20 15:00N 34°40' E 138°38'510.8
2018-Feb-20 14:30N 34°45' E 138°35'510.9
2018-Feb-20 14:00N 34°50' E 138°34'611.0
2018-Feb-20 13:30N 34°55' E 138°34'611.7
2018-Feb-20 13:00N 35°01' E 138°33'2 4.9
2018-Feb-20 12:30N 35°02' E 138°30'0 0.0
2018-Feb-20 11:58N 35°02' E 138°30'0 0.0
2018-Feb-20 11:25N 35°02' E 138°30'0 0.0
2018-Feb-20 10:58N 35°02' E 138°30'0 0.0
2018-Feb-20 10:30N 35°02' E 138°30'4 8.2
2018-Feb-20 10:00N 34°59' E 138°34'713.8
2018-Feb-20 09:30N 34°53' E 138°37'714.4
2018-Feb-20 09:00N 34°46' E 138°41'814.6
2018-Feb-20 08:29N 34°39' E 138°45'613.1
2018-Feb-20 08:00N 34°35' E 138°50'812.7
2018-Feb-20 07:24N 34°38' E 138°59'614.0
2018-Feb-20 06:56N 34°42' E 139°05'714.1
2018-Feb-20 06:27N 34°47' E 139°10'612.9
2018-Feb-20 05:57N 34°51' E 139°16'713.2
2018-Feb-20 05:23N 34°56' E 139°24'513.3
2018-Feb-20 04:59N 34°59' E 139°29'613.3
2018-Feb-20 04:30N 35°03' E 139°35'713.7
2018-Feb-20 04:00N 35°07' E 139°42'714.0
2018-Feb-20 03:30N 35°13' E 139°46'612.9
2018-Feb-20 03:00N 35°19' E 139°43'611.1
2018-Feb-20 02:30N 35°24' E 139°41'0 0.5
2018-Feb-20 02:00N 35°24' E 139°41'0 0.0
2018-Feb-20 01:30N 35°24' E 139°41'0 0.0
2018-Feb-20 01:00N 35°24' E 139°41'0 0.0
2018-Feb-20 00:30N 35°24' E 139°41'0 0.0
2018-Feb-20 00:00N 35°24' E 139°41'0 0.0
2018-Feb-19 23:30N 35°24' E 139°41'1 2.3
2018-Feb-19 23:00N 35°23' E 139°41'3 5.0
2018-Feb-19 22:29N 35°22' E 139°44'0 0.0
2018-Feb-19 21:59N 35°22' E 139°44'0 0.0
2018-Feb-19 21:29N 35°22' E 139°44'0 0.0
2018-Feb-19 20:59N 35°22' E 139°44'0 0.0
2018-Feb-19 20:29N 35°22' E 139°44'0 0.0
2018-Feb-19 19:59N 35°22' E 139°44'0 0.1
2018-Feb-19 19:29N 35°22' E 139°44'2 5.0
2018-Feb-19 19:00N 35°20' E 139°43'611.3
2018-Feb-19 18:30N 35°15' E 139°47'510.4
2018-Feb-19 18:01N 35°10' E 139°46'510.7
2018-Feb-19 17:30N 35°05' E 139°44'510.6
2018-Feb-19 17:00N 35°01' E 139°39'1411.3
2018-Feb-19 15:44N 34°53' E 139°25'311.8
2018-Feb-19 15:27N 34°51' E 139°22'612.3
2018-Feb-19 15:00N 34°48' E 139°16'1012.3
2018-Feb-19 14:11N 34°41' E 139°07'211.5
2018-Feb-19 14:00N 34°40' E 139°05'711.7
2018-Feb-19 13:23N 34°36' E 138°58'612.3
2018-Feb-19 12:52N 34°34' E 138°50'511.6
2018-Feb-19 12:28N 34°34' E 138°45'611.8
2018-Feb-19 11:58N 34°33' E 138°38'612.3
2018-Feb-19 11:28N 34°33' E 138°30'612.1
2018-Feb-19 10:58N 34°33' E 138°23'511.9
2018-Feb-19 10:30N 34°34' E 138°16'712.2
2018-Feb-19 09:58N 34°34' E 138°08'3712.1
2018-Feb-19 06:52N 34°33' E 137°23'511.8
2018-Feb-19 06:27N 34°33' E 137°17'1611.0
2018-Feb-19 04:57N 34°35' E 136°57'511.7
2018-Feb-19 04:30N 34°39' E 136°52'611.5
2018-Feb-19 04:00N 34°43' E 136°48'611.8
2018-Feb-19 03:30N 34°49' E 136°45'612.0
2018-Feb-19 03:01N 34°55' E 136°45'611.8
2018-Feb-19 02:30N 34°60' E 136°49'3 6.1
2018-Feb-19 02:00N 35°03' E 136°50'0 0.0
2018-Feb-19 01:30N 35°03' E 136°50'1 1.5
2018-Feb-19 00:58N 35°02' E 136°50'0 0.0
2018-Feb-19 00:28N 35°02' E 136°50'0 0.0
2018-Feb-18 23:58N 35°02' E 136°50'0 0.0
2018-Feb-18 23:28N 35°02' E 136°50'2 3.4
2018-Feb-18 23:00N 35°03' E 136°52'1 2.5
2018-Feb-18 22:27N 35°05' E 136°52'0 0.0
2018-Feb-18 22:00N 35°05' E 136°52'0 0.0
2018-Feb-18 21:30N 35°05' E 136°52'0 0.0
2018-Feb-18 21:00N 35°05' E 136°52'0 0.0
2018-Feb-18 20:30N 35°05' E 136°52'0 0.0
2018-Feb-18 20:00N 35°05' E 136°52'0 0.0
2018-Feb-18 19:30N 35°05' E 136°52'0 0.0
2018-Feb-18 19:00N 35°05' E 136°52'0 0.0
2018-Feb-18 18:30N 35°05' E 136°52'0 0.0
2018-Feb-18 18:00N 35°05' E 136°52'0 0.0
2018-Feb-18 17:30N 35°05' E 136°52'0 0.0
2018-Feb-18 17:00N 35°05' E 136°52'0 0.0
2018-Feb-18 16:30N 35°05' E 136°52'0 0.0
2018-Feb-18 16:00N 35°05' E 136°52'0 0.0
2018-Feb-18 15:30N 35°05' E 136°52'0 0.0
2018-Feb-18 15:00N 35°05' E 136°52'0 0.0
2018-Feb-18 14:30N 35°05' E 136°52'0 0.0
2018-Feb-18 14:00N 35°05' E 136°52'0 0.0
2018-Feb-18 13:30N 35°05' E 136°52'0 0.0
2018-Feb-18 13:00N 35°05' E 136°52'0 0.0
2018-Feb-18 12:30N 35°05' E 136°52'0 0.0
2018-Feb-18 12:00N 35°05' E 136°52'0 0.0
2018-Feb-18 11:30N 35°05' E 136°52'0 0.0
2018-Feb-18 11:00N 35°05' E 136°52'0 0.0
2018-Feb-18 10:27N 35°05' E 136°52'0 0.0
2018-Feb-18 10:00N 35°05' E 136°52'0 0.0
2018-Feb-18 09:30N 35°05' E 136°52'0 0.0
2018-Feb-18 09:00N 35°05' E 136°52'0 0.0
2018-Feb-18 08:30N 35°05' E 136°52'0 0.0
2018-Feb-18 08:00N 35°05' E 136°52'0 0.0
2018-Feb-18 07:30N 35°05' E 136°52'0 0.0
2018-Feb-18 07:00N 35°05' E 136°52'0 0.0
2018-Feb-18 06:30N 35°05' E 136°52'0 0.0
2018-Feb-18 06:00N 35°05' E 136°52'0 0.0
2018-Feb-18 05:30N 35°05' E 136°52'0 0.0
2018-Feb-18 05:00N 35°05' E 136°52'0 0.0
2018-Feb-18 04:30N 35°05' E 136°52'0 0.1
2018-Feb-18 04:00N 35°04' E 136°52'3 5.5
2018-Feb-18 03:30N 35°02' E 136°51'510.9
2018-Feb-18 03:00N 34°57' E 136°47'510.7
2018-Feb-18 02:30N 34°52' E 136°47'611.0
2018-Feb-18 02:00N 34°46' E 136°48'611.3
2018-Feb-18 01:30N 34°41' E 136°51'611.1
2018-Feb-18 01:00N 34°37' E 136°56'511.0
2018-Feb-18 00:30N 34°34' E 137°01'910.9
2018-Feb-17 23:38N 34°33' E 137°12'211.8
2018-Feb-17 23:30N 34°33' E 137°14'50 9.5
2018-Feb-17 18:17N 34°34' E 138°14'3 7.6
2018-Feb-17 17:56N 34°35' E 138°18'4 8.0
2018-Feb-17 17:29N 34°35' E 138°22'4 8.0
2018-Feb-17 17:00N 34°36' E 138°26'4 8.2
2018-Feb-17 16:30N 34°37' E 138°31'4 8.1
2018-Feb-17 16:00N 34°38' E 138°36'4 7.0
2018-Feb-17 15:24N 34°38' E 138°41'4 6.2
2018-Feb-17 14:47N 34°36' E 138°45'2 4.7
2018-Feb-17 14:24N 34°36' E 138°47'6 3.4
2018-Feb-17 12:42N 34°36' E 138°54'1 2.6
2018-Feb-17 12:30N 34°36' E 138°55'2 3.6
2018-Feb-17 11:53N 34°36' E 138°58'6 7.8
2018-Feb-17 11:09N 34°40' E 139°02'3 9.5
2018-Feb-17 10:52N 34°42' E 139°05'4 9.2
2018-Feb-17 10:26N 34°45' E 139°08'8 8.9
2018-Feb-17 09:34N 34°51' E 139°14'3 8.7
2018-Feb-17 09:16N 34°52' E 139°17'3 8.1
2018-Feb-17 08:56N 34°53' E 139°20'4 7.1
2018-Feb-17 08:20N 34°55' E 139°25'2 6.9
2018-Feb-17 07:58N 34°57' E 139°27'3 6.9
2018-Feb-17 07:30N 34°59' E 139°30'3 6.7
2018-Feb-17 07:00N 35°02' E 139°32'4 7.3
2018-Feb-17 06:30N 35°04' E 139°36'4 7.1
2018-Feb-17 06:00N 35°06' E 139°40'4 7.5
2018-Feb-17 05:30N 35°08' E 139°43'4 9.0
2018-Feb-17 05:00N 35°12' E 139°46'5 9.8
2018-Feb-17 04:30N 35°17' E 139°45'510.3
2018-Feb-17 04:01N 35°22' E 139°43'1 1.7
2018-Feb-17 03:28N 35°22' E 139°44'0 0.0
2018-Feb-17 02:58N 35°22' E 139°44'1 2.5
2018-Feb-17 02:30N 35°23' E 139°42'2 3.4
2018-Feb-17 01:58N 35°24' E 139°41'0 0.0
2018-Feb-17 01:28N 35°24' E 139°41'0 0.0
2018-Feb-17 01:00N 35°24' E 139°41'1 2.9
2018-Feb-17 00:31N 35°23' E 139°41'3 5.1
2018-Feb-17 00:01N 35°20' E 139°42'611.5
2018-Feb-16 23:30N 35°16' E 139°46'611.2
2018-Feb-16 23:00N 35°10' E 139°46'611.3
2018-Feb-16 22:30N 35°05' E 139°44'811.0
2018-Feb-16 21:49N 34°58' E 139°41'410.8
2018-Feb-16 21:24N 34°54' E 139°39'410.6
2018-Feb-16 21:00N 34°50' E 139°36'4 7.9
2018-Feb-16 20:28N 34°48' E 139°32'511.8
2018-Feb-16 20:00N 34°50' E 139°25'611.6
2018-Feb-16 19:30N 34°49' E 139°18'612.0
2018-Feb-16 18:58N 34°45' E 139°13'511.3
2018-Feb-16 18:29N 34°42' E 139°08'811.6
2018-Feb-16 17:50N 34°37' E 138°60'411.3
2018-Feb-16 17:30N 34°35' E 138°56'712.8
2018-Feb-16 16:59N 34°35' E 138°48'612.7
2018-Feb-16 16:30N 34°34' E 138°41'612.5
2018-Feb-16 16:00N 34°34' E 138°33'612.0
2018-Feb-16 15:30N 34°33' E 138°26'612.7
2018-Feb-16 15:00N 34°33' E 138°18'713.1
2018-Feb-16 14:30N 34°33' E 138°10'3811.8
2018-Feb-16 11:14N 34°33' E 137°23'311.6
2018-Feb-16 10:59N 34°33' E 137°20'711.6
2018-Feb-16 10:22N 34°32' E 137°11'812.3
2018-Feb-16 09:45N 34°32' E 137°02'412.3
2018-Feb-16 09:26N 34°35' E 136°58'512.1
2018-Feb-16 09:00N 34°38' E 136°53'612.1
2018-Feb-16 08:29N 34°43' E 136°48'612.2
2018-Feb-16 08:00N 34°48' E 136°46'612.4
2018-Feb-16 07:30N 34°54' E 136°46'611.9
2018-Feb-16 07:00N 34°60' E 136°49'4 7.0
2018-Feb-16 06:30N 35°03' E 136°50'0 0.5
2018-Feb-16 06:00N 35°03' E 136°50'0 0.0
2018-Feb-16 05:30N 35°03' E 136°50'0 0.0
2018-Feb-16 04:54N 35°03' E 136°50'2 3.9
2018-Feb-16 04:30N 35°01' E 136°50'611.4
2018-Feb-16 04:00N 34°57' E 136°47'612.2
2018-Feb-16 03:30N 34°50' E 136°47'612.0
2018-Feb-16 03:00N 34°45' E 136°49'611.6
2018-Feb-16 02:30N 34°40' E 136°53'611.4
2018-Feb-16 02:00N 34°36' E 136°58'106 8.0
2018-Feb-15 12:46N 33°49' E 135°03'412.8
2018-Feb-15 12:30N 33°52' E 135°01'612.6
2018-Feb-15 12:00N 33°58' E 135°00'612.4
2018-Feb-15 11:30N 34°05' E 135°00'612.4
2018-Feb-15 11:00N 34°11' E 134°60'612.1
2018-Feb-15 10:30N 34°17' E 134°59'611.5
2018-Feb-15 10:00N 34°22' E 135°01'612.2
2018-Feb-15 09:30N 34°26' E 135°07'611.9
2018-Feb-15 09:00N 34°30' E 135°12'611.7
2018-Feb-15 08:30N 34°35' E 135°16'510.6
2018-Feb-15 08:01N 34°40' E 135°15'0 0.7
2018-Feb-15 07:28N 34°41' E 135°16'0 0.0
2018-Feb-15 06:58N 34°41' E 135°16'1 1.3
2018-Feb-15 06:30N 34°40' E 135°15'4 8.8
2018-Feb-15 06:00N 34°36' E 135°16'510.2
2018-Feb-15 05:30N 34°32' E 135°13'611.5
2018-Feb-15 05:00N 34°27' E 135°09'611.1
2018-Feb-15 04:30N 34°23' E 135°04'610.8
2018-Feb-15 04:00N 34°19' E 135°00'611.4
2018-Feb-15 03:30N 34°13' E 134°59'713.2
2018-Feb-15 03:00N 34°07' E 135°01'713.4
2018-Feb-15 02:30N 33°60' E 135°02'713.1
2018-Feb-15 02:00N 33°53' E 135°02'612.9
2018-Feb-15 01:30N 33°48' E 135°06'14111.0
2018-Feb-14 12:37N 34°25' E 137°51'412.8
2018-Feb-14 12:16N 34°28' E 137°56'412.8
2018-Feb-14 11:57N 34°29' E 138°00'612.3
2018-Feb-14 11:28N 34°32' E 138°07'511.5
2018-Feb-14 10:59N 34°34' E 138°13'611.7
2018-Feb-14 10:30N 34°34' E 138°20'612.1
2018-Feb-14 09:59N 34°35' E 138°28'612.1
2018-Feb-14 09:31N 34°35' E 138°34'611.9
2018-Feb-14 09:00N 34°35' E 138°42'611.2
2018-Feb-14 08:29N 34°35' E 138°49'510.5
2018-Feb-14 08:00N 34°35' E 138°55'811.2
2018-Feb-14 07:16N 34°40' E 139°02'311.2
2018-Feb-14 06:59N 34°43' E 139°05'610.6
2018-Feb-14 06:25N 34°48' E 139°09'810.7
2018-Feb-14 05:40N 34°53' E 139°16'2 9.9
2018-Feb-14 05:30N 34°54' E 139°18'5 9.2
2018-Feb-14 04:56N 34°57' E 139°23'4 9.0
2018-Feb-14 04:30N 34°59' E 139°27'510.1
2018-Feb-14 04:00N 35°02' E 139°32'612.3
2018-Feb-14 03:31N 35°05' E 139°39'612.9
2018-Feb-14 03:00N 35°10' E 139°44'612.3
2018-Feb-14 02:30N 35°16' E 139°46'612.7
2018-Feb-14 02:00N 35°21' E 139°42'3 6.1
2018-Feb-14 01:30N 35°24' E 139°41'0 0.0
2018-Feb-14 01:00N 35°24' E 139°41'0 0.0
2018-Feb-14 00:30N 35°24' E 139°41'0 0.0
2018-Feb-14 00:00N 35°24' E 139°41'0 0.0
2018-Feb-13 23:30N 35°24' E 139°41'1 2.3
2018-Feb-13 23:00N 35°23' E 139°42'2 4.5
2018-Feb-13 22:29N 35°23' E 139°44'0 0.0
2018-Feb-13 21:56N 35°23' E 139°44'0 0.0
2018-Feb-13 21:28N 35°23' E 139°44'0 0.0
2018-Feb-13 20:58N 35°23' E 139°44'0 0.0
2018-Feb-13 20:28N 35°23' E 139°44'0 0.0
2018-Feb-13 19:59N 35°23' E 139°44'0 0.1
2018-Feb-13 19:28N 35°23' E 139°45'0 0.0
2018-Feb-13 18:59N 35°23' E 139°45'0 0.1
2018-Feb-13 18:29N 35°23' E 139°45'0 0.0
2018-Feb-13 17:58N 35°23' E 139°45'0 0.1
2018-Feb-13 17:29N 35°23' E 139°45'0 0.1
2018-Feb-13 16:58N 35°23' E 139°44'0 0.0
2018-Feb-13 16:28N 35°23' E 139°44'0 0.1
2018-Feb-13 15:59N 35°23' E 139°44'0 0.0
2018-Feb-13 15:26N 35°23' E 139°44'0 0.1
2018-Feb-13 14:58N 35°23' E 139°44'0 0.0
2018-Feb-13 14:29N 35°23' E 139°44'0 0.1
2018-Feb-13 13:58N 35°23' E 139°44'0 0.1
2018-Feb-13 13:28N 35°23' E 139°44'0 0.0
2018-Feb-13 12:59N 35°23' E 139°44'0 0.0
2018-Feb-13 12:28N 35°23' E 139°44'0 0.0
2018-Feb-13 11:58N 35°23' E 139°44'0 0.0
2018-Feb-13 11:28N 35°23' E 139°44'0 0.0
2018-Feb-13 10:58N 35°23' E 139°44'0 0.0
2018-Feb-13 10:28N 35°23' E 139°44'0 0.1
2018-Feb-13 09:59N 35°23' E 139°45'0 0.1
2018-Feb-13 09:28N 35°23' E 139°45'0 0.1
2018-Feb-13 08:59N 35°23' E 139°45'0 0.0
2018-Feb-13 08:28N 35°23' E 139°45'0 0.0
2018-Feb-13 07:58N 35°23' E 139°45'0 0.0
2018-Feb-13 07:29N 35°23' E 139°45'0 0.0
2018-Feb-13 06:58N 35°23' E 139°45'0 0.1
2018-Feb-13 06:28N 35°23' E 139°45'0 0.0
2018-Feb-13 05:59N 35°23' E 139°45'0 0.0
2018-Feb-13 05:29N 35°23' E 139°45'0 0.0
2018-Feb-13 04:59N 35°23' E 139°45'0 0.0
2018-Feb-13 04:29N 35°23' E 139°45'0 0.0
2018-Feb-13 03:58N 35°23' E 139°45'0 0.0
2018-Feb-13 03:28N 35°23' E 139°45'0 0.0
2018-Feb-13 02:58N 35°23' E 139°45'0 0.0
2018-Feb-13 02:30N 35°23' E 139°45'4 7.1
2018-Feb-13 02:00N 35°26' E 139°47'610.8
2018-Feb-13 01:29N 35°31' E 139°50'510.1
2018-Feb-13 01:00N 35°35' E 139°47'1 2.1
2018-Feb-13 00:22N 35°36' E 139°46'0 0.0
2018-Feb-12 23:58N 35°36' E 139°46'0 0.0
2018-Feb-12 23:30N 35°36' E 139°46'3 6.0
2018-Feb-12 23:00N 35°34' E 139°49'3 3.8
2018-Feb-12 22:09N 35°33' E 139°53'0 0.0
2018-Feb-12 21:57N 35°33' E 139°53'0 0.1
2018-Feb-12 21:09N 35°33' E 139°53'0 0.0
2018-Feb-12 21:00N 35°33' E 139°53'0 0.1
2018-Feb-12 20:21N 35°33' E 139°53'0 0.0
2018-Feb-12 20:00N 35°33' E 139°53'0 0.1
2018-Feb-12 19:30N 35°33' E 139°53'0 0.0
2018-Feb-12 17:09N 35°33' E 139°53'0 0.0
2018-Feb-12 16:57N 35°33' E 139°53'0 0.0
2018-Feb-12 16:27N 35°33' E 139°53'0 0.0
2018-Feb-12 15:03N 35°33' E 139°53'0 0.0
2018-Feb-12 13:45N 35°33' E 139°53'0 0.0
2018-Feb-12 13:21N 35°33' E 139°53'0 0.0
2018-Feb-12 12:57N 35°33' E 139°53'0 0.0
2018-Feb-12 11:33N 35°33' E 139°53'0 0.0
2018-Feb-12 11:21N 35°33' E 139°53'0 0.0
2018-Feb-12 10:45N 35°33' E 139°53'0 0.0
2018-Feb-12 10:21N 35°33' E 139°53'0 0.0
2018-Feb-12 10:00N 35°33' E 139°53'0 0.0
2018-Feb-12 09:21N 35°33' E 139°53'0 0.0
2018-Feb-12 08:02N 35°33' E 139°53'0 0.2
2018-Feb-12 07:59N 35°33' E 139°53'2 5.0
2018-Feb-12 07:30N 35°31' E 139°53'611.7
2018-Feb-12 07:00N 35°26' E 139°48'612.1
2018-Feb-12 06:31N 35°21' E 139°45'510.4
2018-Feb-12 06:00N 35°16' E 139°47'611.6
2018-Feb-12 05:30N 35°10' E 139°47'611.5
2018-Feb-12 05:00N 35°05' E 139°44'612.3
2018-Feb-12 04:30N 35°01' E 139°38'712.4
2018-Feb-12 03:55N 34°57' E 139°31'613.4
2018-Feb-12 03:30N 34°54' E 139°25'714.4
2018-Feb-12 02:59N 34°50' E 139°18'713.9
2018-Feb-12 02:30N 34°45' E 139°12'813.3
2018-Feb-12 01:55N 34°40' E 139°05'712.7
2018-Feb-12 01:22N 34°36' E 138°58'612.6
2018-Feb-12 00:51N 34°35' E 138°50'512.5
2018-Feb-12 00:27N 34°35' E 138°44'512.0
2018-Feb-12 00:00N 34°40' E 138°40'611.5
2018-Feb-11 23:29N 34°46' E 138°39'511.3
2018-Feb-11 23:01N 34°51' E 138°38'611.1
2018-Feb-11 22:31N 34°56' E 138°36'611.3
2018-Feb-11 22:01N 35°01' E 138°33'2 4.1
2018-Feb-11 21:29N 35°02' E 138°30'0 0.0
2018-Feb-11 21:01N 35°02' E 138°30'0 0.0
2018-Feb-11 20:30N 35°02' E 138°30'0 0.0
2018-Feb-11 20:01N 35°02' E 138°30'0 0.0
2018-Feb-11 19:30N 35°02' E 138°30'0 0.0
2018-Feb-11 19:00N 35°02' E 138°30'1 1.2
2018-Feb-11 18:30N 35°02' E 138°31'4 7.6
2018-Feb-11 18:01N 34°58' E 138°33'612.2
2018-Feb-11 17:30N 34°53' E 138°30'612.1
2018-Feb-11 17:00N 34°48' E 138°26'712.0
2018-Feb-11 16:28N 34°42' E 138°22'611.9
2018-Feb-11 15:59N 34°37' E 138°19'511.1
2018-Feb-11 15:30N 34°33' E 138°15'912.4
2018-Feb-11 14:46N 34°33' E 138°03'  
Track history (hours):
 
Tides and Currents Weather Stations Pressure Air Temp Water Temp Dewpoint Dewpoint Depression Visibility Wind Speed Wind Dir Waves Ship Positions

Hiyodori

Last reported at 2018-Feb-21 10:51 UTC. Time now 2018-Feb-21 11:28 UTC.
Position N 34°33' E 138°10'.

Length 88 m; draft 3.6 m.

Type: Cargo ship. MMSI: 431000132.

Date/timePositionNaut miles runAvg speedWind from/ knotsBaromVisibWave heightAir tempDewpointWater temp
2018-Feb-21 10:51N 34°33' E 138°10'411.7
2018-Feb-21 10:28N 34°34' E 138°16'612.0
2018-Feb-21 09:57N 34°34' E 138°23'512.0
2018-Feb-21 09:30N 34°34' E 138°30'712.0
2018-Feb-21 08:57N 34°35' E 138°38'512.4
2018-Feb-21 08:31N 34°35' E 138°44'813.2
2018-Feb-21 07:53N 34°35' E 138°55'813.4
2018-Feb-21 07:16N 34°41' E 139°02'814.3
2018-Feb-21 06:42N 34°47' E 139°09'1413.1
2018-Feb-21 05:37N 34°55' E 139°22'213.0
2018-Feb-21 05:26N 34°57' E 139°25'613.1
2018-Feb-21 05:00N 35°00' E 139°30'713.7
2018-Feb-21 04:30N 35°04' E 139°37'714.1
2018-Feb-21 04:00N 35°09' E 139°43'713.5
2018-Feb-21 03:30N 35°15' E 139°47'713.4
2018-Feb-21 03:00N 35°21' E 139°42'4 7.3
2018-Feb-21 02:30N 35°24' E 139°41'0 0.0
2018-Feb-21 02:00N 35°24' E 139°41'0 0.0
2018-Feb-21 01:30N 35°24' E 139°41'0 0.0
2018-Feb-21 01:00N 35°24' E 139°41'0 0.0
2018-Feb-21 00:30N 35°24' E 139°41'0 0.0
2018-Feb-20 23:54N 35°24' E 139°41'0 0.0
2018-Feb-20 23:30N 35°24' E 139°41'2 3.6
2018-Feb-20 23:00N 35°22' E 139°41'2 4.8
2018-Feb-20 22:30N 35°20' E 139°42'612.0
2018-Feb-20 22:00N 35°16' E 139°47'611.9
2018-Feb-20 21:30N 35°10' E 139°46'610.9
2018-Feb-20 20:55N 35°04' E 139°43'410.6
2018-Feb-20 20:30N 35°01' E 139°39'710.5
2018-Feb-20 19:50N 34°57' E 139°32'510.2
2018-Feb-20 19:18N 34°54' E 139°26'310.2
2018-Feb-20 19:00N 34°52' E 139°23'5 9.6
2018-Feb-20 18:29N 34°49' E 139°19'510.4
2018-Feb-20 17:59N 34°46' E 139°14'710.7
2018-Feb-20 17:19N 34°41' E 139°07'411.6
2018-Feb-20 16:57N 34°39' E 139°03'612.5
2018-Feb-20 16:30N 34°36' E 138°57'712.9
2018-Feb-20 15:59N 34°35' E 138°49'611.3
2018-Feb-20 15:27N 34°36' E 138°42'511.4
2018-Feb-20 15:00N 34°40' E 138°38'510.8
2018-Feb-20 14:30N 34°45' E 138°35'510.9
2018-Feb-20 14:00N 34°50' E 138°34'611.0
2018-Feb-20 13:30N 34°55' E 138°34'611.7
2018-Feb-20 13:00N 35°01' E 138°33'2 4.9
2018-Feb-20 12:30N 35°02' E 138°30'0 0.0
2018-Feb-20 11:58N 35°02' E 138°30'0 0.0
2018-Feb-20 11:25N 35°02' E 138°30'0 0.0
2018-Feb-20 10:58N 35°02' E 138°30'0 0.0
2018-Feb-20 10:30N 35°02' E 138°30'4 8.2
2018-Feb-20 10:00N 34°59' E 138°34'713.8
2018-Feb-20 09:30N 34°53' E 138°37'714.4
2018-Feb-20 09:00N 34°46' E 138°41'814.6
2018-Feb-20 08:29N 34°39' E 138°45'613.1
2018-Feb-20 08:00N 34°35' E 138°50'812.7
2018-Feb-20 07:24N 34°38' E 138°59'614.0
2018-Feb-20 06:56N 34°42' E 139°05'714.1
2018-Feb-20 06:27N 34°47' E 139°10'612.9
2018-Feb-20 05:57N 34°51' E 139°16'713.2
2018-Feb-20 05:23N 34°56' E 139°24'513.3
2018-Feb-20 04:59N 34°59' E 139°29'613.3
2018-Feb-20 04:30N 35°03' E 139°35'713.7
2018-Feb-20 04:00N 35°07' E 139°42'714.0
2018-Feb-20 03:30N 35°13' E 139°46'612.9
2018-Feb-20 03:00N 35°19' E 139°43'611.1
2018-Feb-20 02:30N 35°24' E 139°41'0 0.5
2018-Feb-20 02:00N 35°24' E 139°41'0 0.0
2018-Feb-20 01:30N 35°24' E 139°41'0 0.0
2018-Feb-20 01:00N 35°24' E 139°41'0 0.0
2018-Feb-20 00:30N 35°24' E 139°41'0 0.0
2018-Feb-20 00:00N 35°24' E 139°41'0 0.0
2018-Feb-19 23:30N 35°24' E 139°41'1 2.3
2018-Feb-19 23:00N 35°23' E 139°41'3 5.0
2018-Feb-19 22:29N 35°22' E 139°44'0 0.0
2018-Feb-19 21:59N 35°22' E 139°44'0 0.0
2018-Feb-19 21:29N 35°22' E 139°44'0 0.0
2018-Feb-19 20:59N 35°22' E 139°44'0 0.0
2018-Feb-19 20:29N 35°22' E 139°44'0 0.0
2018-Feb-19 19:59N 35°22' E 139°44'0 0.1
2018-Feb-19 19:29N 35°22' E 139°44'2 5.0
2018-Feb-19 19:00N 35°20' E 139°43'611.3
2018-Feb-19 18:30N 35°15' E 139°47'510.4
2018-Feb-19 18:01N 35°10' E 139°46'510.7
2018-Feb-19 17:30N 35°05' E 139°44'510.6
2018-Feb-19 17:00N 35°01' E 139°39'1411.3
2018-Feb-19 15:44N 34°53' E 139°25'311.8
2018-Feb-19 15:27N 34°51' E 139°22'612.3
2018-Feb-19 15:00N 34°48' E 139°16'1012.3
2018-Feb-19 14:11N 34°41' E 139°07'211.5
2018-Feb-19 14:00N 34°40' E 139°05'711.7
2018-Feb-19 13:23N 34°36' E 138°58'612.3
2018-Feb-19 12:52N 34°34' E 138°50'511.6
2018-Feb-19 12:28N 34°34' E 138°45'611.8
2018-Feb-19 11:58N 34°33' E 138°38'612.3
2018-Feb-19 11:28N 34°33' E 138°30'612.1
2018-Feb-19 10:58N 34°33' E 138°23'511.9
2018-Feb-19 10:30N 34°34' E 138°16'712.2
2018-Feb-19 09:58N 34°34' E 138°08'3712.1
2018-Feb-19 06:52N 34°33' E 137°23'511.8
2018-Feb-19 06:27N 34°33' E 137°17'1611.0
2018-Feb-19 04:57N 34°35' E 136°57'511.7
2018-Feb-19 04:30N 34°39' E 136°52'611.5
2018-Feb-19 04:00N 34°43' E 136°48'611.8
2018-Feb-19 03:30N 34°49' E 136°45'612.0
2018-Feb-19 03:01N 34°55' E 136°45'611.8
2018-Feb-19 02:30N 34°60' E 136°49'3 6.1
2018-Feb-19 02:00N 35°03' E 136°50'0 0.0
2018-Feb-19 01:30N 35°03' E 136°50'1 1.5
2018-Feb-19 00:58N 35°02' E 136°50'0 0.0
2018-Feb-19 00:28N 35°02' E 136°50'0 0.0
2018-Feb-18 23:58N 35°02' E 136°50'0 0.0
2018-Feb-18 23:28N 35°02' E 136°50'2 3.4
2018-Feb-18 23:00N 35°03' E 136°52'1 2.5
2018-Feb-18 22:27N 35°05' E 136°52'0 0.0
2018-Feb-18 22:00N 35°05' E 136°52'0 0.0
2018-Feb-18 21:30N 35°05' E 136°52'0 0.0
2018-Feb-18 21:00N 35°05' E 136°52'0 0.0
2018-Feb-18 20:30N 35°05' E 136°52'0 0.0
2018-Feb-18 20:00N 35°05' E 136°52'0 0.0
2018-Feb-18 19:30N 35°05' E 136°52'0 0.0
2018-Feb-18 19:00N 35°05' E 136°52'0 0.0
2018-Feb-18 18:30N 35°05' E 136°52'0 0.0
2018-Feb-18 18:00N 35°05' E 136°52'0 0.0
2018-Feb-18 17:30N 35°05' E 136°52'0 0.0
2018-Feb-18 17:00N 35°05' E 136°52'0 0.0
2018-Feb-18 16:30N 35°05' E 136°52'0 0.0
2018-Feb-18 16:00N 35°05' E 136°52'0 0.0
2018-Feb-18 15:30N 35°05' E 136°52'0 0.0
2018-Feb-18 15:00N 35°05' E 136°52'0 0.0
2018-Feb-18 14:30N 35°05' E 136°52'0 0.0
2018-Feb-18 14:00N 35°05' E 136°52'0 0.0
2018-Feb-18 13:30N 35°05' E 136°52'0 0.0
2018-Feb-18 13:00N 35°05' E 136°52'0 0.0
2018-Feb-18 12:30N 35°05' E 136°52'0 0.0
2018-Feb-18 12:00N 35°05' E 136°52'0 0.0
2018-Feb-18 11:30N 35°05' E 136°52'0 0.0
2018-Feb-18 11:00N 35°05' E 136°52'0 0.0
2018-Feb-18 10:27N 35°05' E 136°52'0 0.0
2018-Feb-18 10:00N 35°05' E 136°52'0 0.0
2018-Feb-18 09:30N 35°05' E 136°52'0 0.0
2018-Feb-18 09:00N 35°05' E 136°52'0 0.0
2018-Feb-18 08:30N 35°05' E 136°52'0 0.0
2018-Feb-18 08:00N 35°05' E 136°52'0 0.0
2018-Feb-18 07:30N 35°05' E 136°52'0 0.0
2018-Feb-18 07:00N 35°05' E 136°52'0 0.0
2018-Feb-18 06:30N 35°05' E 136°52'0 0.0
2018-Feb-18 06:00N 35°05' E 136°52'0 0.0
2018-Feb-18 05:30N 35°05' E 136°52'0 0.0
2018-Feb-18 05:00N 35°05' E 136°52'0 0.0
2018-Feb-18 04:30N 35°05' E 136°52'0 0.1
2018-Feb-18 04:00N 35°04' E 136°52'3 5.5
2018-Feb-18 03:30N 35°02' E 136°51'510.9
2018-Feb-18 03:00N 34°57' E 136°47'510.7
2018-Feb-18 02:30N 34°52' E 136°47'611.0
2018-Feb-18 02:00N 34°46' E 136°48'611.3
2018-Feb-18 01:30N 34°41' E 136°51'611.1
2018-Feb-18 01:00N 34°37' E 136°56'511.0
2018-Feb-18 00:30N 34°34' E 137°01'910.9
2018-Feb-17 23:38N 34°33' E 137°12'211.8
2018-Feb-17 23:30N 34°33' E 137°14'50 9.5
2018-Feb-17 18:17N 34°34' E 138°14'3 7.6
2018-Feb-17 17:56N 34°35' E 138°18'4 8.0
2018-Feb-17 17:29N 34°35' E 138°22'4 8.0
2018-Feb-17 17:00N 34°36' E 138°26'4 8.2
2018-Feb-17 16:30N 34°37' E 138°31'4 8.1
2018-Feb-17 16:00N 34°38' E 138°36'4 7.0
2018-Feb-17 15:24N 34°38' E 138°41'4 6.2
2018-Feb-17 14:47N 34°36' E 138°45'2 4.7
2018-Feb-17 14:24N 34°36' E 138°47'6 3.4
2018-Feb-17 12:42N 34°36' E 138°54'1 2.6
2018-Feb-17 12:30N 34°36' E 138°55'2 3.6
2018-Feb-17 11:53N 34°36' E 138°58'6 7.8
2018-Feb-17 11:09N 34°40' E 139°02'3 9.5
2018-Feb-17 10:52N 34°42' E 139°05'4 9.2
2018-Feb-17 10:26N 34°45' E 139°08'8 8.9
2018-Feb-17 09:34N 34°51' E 139°14'3 8.7
2018-Feb-17 09:16N 34°52' E 139°17'3 8.1
2018-Feb-17 08:56N 34°53' E 139°20'4 7.1
2018-Feb-17 08:20N 34°55' E 139°25'2 6.9
2018-Feb-17 07:58N 34°57' E 139°27'3 6.9
2018-Feb-17 07:30N 34°59' E 139°30'3 6.7
2018-Feb-17 07:00N 35°02' E 139°32'4 7.3
2018-Feb-17 06:30N 35°04' E 139°36'4 7.1
2018-Feb-17 06:00N 35°06' E 139°40'4 7.5
2018-Feb-17 05:30N 35°08' E 139°43'4 9.0
2018-Feb-17 05:00N 35°12' E 139°46'5 9.8
2018-Feb-17 04:30N 35°17' E 139°45'510.3
2018-Feb-17 04:01N 35°22' E 139°43'1 1.7
2018-Feb-17 03:28N 35°22' E 139°44'0 0.0
2018-Feb-17 02:58N 35°22' E 139°44'1 2.5
2018-Feb-17 02:30N 35°23' E 139°42'2 3.4
2018-Feb-17 01:58N 35°24' E 139°41'0 0.0
2018-Feb-17 01:28N 35°24' E 139°41'0 0.0
2018-Feb-17 01:00N 35°24' E 139°41'1 2.9
2018-Feb-17 00:31N 35°23' E 139°41'3 5.1
2018-Feb-17 00:01N 35°20' E 139°42'611.5
2018-Feb-16 23:30N 35°16' E 139°46'611.2
2018-Feb-16 23:00N 35°10' E 139°46'611.3
2018-Feb-16 22:30N 35°05' E 139°44'811.0
2018-Feb-16 21:49N 34°58' E 139°41'410.8
2018-Feb-16 21:24N 34°54' E 139°39'410.6
2018-Feb-16 21:00N 34°50' E 139°36'4 7.9
2018-Feb-16 20:28N 34°48' E 139°32'511.8
2018-Feb-16 20:00N 34°50' E 139°25'611.6
2018-Feb-16 19:30N 34°49' E 139°18'612.0
2018-Feb-16 18:58N 34°45' E 139°13'511.3
2018-Feb-16 18:29N 34°42' E 139°08'811.6
2018-Feb-16 17:50N 34°37' E 138°60'411.3
2018-Feb-16 17:30N 34°35' E 138°56'712.8
2018-Feb-16 16:59N 34°35' E 138°48'612.7
2018-Feb-16 16:30N 34°34' E 138°41'612.5
2018-Feb-16 16:00N 34°34' E 138°33'612.0
2018-Feb-16 15:30N 34°33' E 138°26'612.7
2018-Feb-16 15:00N 34°33' E 138°18'713.1
2018-Feb-16 14:30N 34°33' E 138°10'3811.8
2018-Feb-16 11:14N 34°33' E 137°23'311.6
2018-Feb-16 10:59N 34°33' E 137°20'711.6
2018-Feb-16 10:22N 34°32' E 137°11'812.3
2018-Feb-16 09:45N 34°32' E 137°02'412.3
2018-Feb-16 09:26N 34°35' E 136°58'512.1
2018-Feb-16 09:00N 34°38' E 136°53'612.1
2018-Feb-16 08:29N 34°43' E 136°48'612.2
2018-Feb-16 08:00N 34°48' E 136°46'612.4
2018-Feb-16 07:30N 34°54' E 136°46'611.9
2018-Feb-16 07:00N 34°60' E 136°49'4 7.0
2018-Feb-16 06:30N 35°03' E 136°50'0 0.5
2018-Feb-16 06:00N 35°03' E 136°50'0 0.0
2018-Feb-16 05:30N 35°03' E 136°50'0 0.0
2018-Feb-16 04:54N 35°03' E 136°50'2 3.9
2018-Feb-16 04:30N 35°01' E 136°50'611.4
2018-Feb-16 04:00N 34°57' E 136°47'612.2
2018-Feb-16 03:30N 34°50' E 136°47'612.0
2018-Feb-16 03:00N 34°45' E 136°49'611.6
2018-Feb-16 02:30N 34°40' E 136°53'611.4
2018-Feb-16 02:00N 34°36' E 136°58'106 8.0
2018-Feb-15 12:46N 33°49' E 135°03'412.8
2018-Feb-15 12:30N 33°52' E 135°01'612.6
2018-Feb-15 12:00N 33°58' E 135°00'612.4
2018-Feb-15 11:30N 34°05' E 135°00'612.4
2018-Feb-15 11:00N 34°11' E 134°60'612.1
2018-Feb-15 10:30N 34°17' E 134°59'611.5
2018-Feb-15 10:00N 34°22' E 135°01'612.2
2018-Feb-15 09:30N 34°26' E 135°07'611.9
2018-Feb-15 09:00N 34°30' E 135°12'611.7
2018-Feb-15 08:30N 34°35' E 135°16'510.6
2018-Feb-15 08:01N 34°40' E 135°15'0 0.7
2018-Feb-15 07:28N 34°41' E 135°16'0 0.0
2018-Feb-15 06:58N 34°41' E 135°16'1 1.3
2018-Feb-15 06:30N 34°40' E 135°15'4 8.8
2018-Feb-15 06:00N 34°36' E 135°16'510.2
2018-Feb-15 05:30N 34°32' E 135°13'611.5
2018-Feb-15 05:00N 34°27' E 135°09'611.1
2018-Feb-15 04:30N 34°23' E 135°04'610.8
2018-Feb-15 04:00N 34°19' E 135°00'611.4
2018-Feb-15 03:30N 34°13' E 134°59'713.2
2018-Feb-15 03:00N 34°07' E 135°01'713.4
2018-Feb-15 02:30N 33°60' E 135°02'713.1
2018-Feb-15 02:00N 33°53' E 135°02'612.9
2018-Feb-15 01:30N 33°48' E 135°06'14111.0
2018-Feb-14 12:37N 34°25' E 137°51'412.8
2018-Feb-14 12:16N 34°28' E 137°56'412.8
2018-Feb-14 11:57N 34°29' E 138°00'612.3
2018-Feb-14 11:28N 34°32' E 138°07'511.5
2018-Feb-14 10:59N 34°34' E 138°13'611.7
2018-Feb-14 10:30N 34°34' E 138°20'612.1
2018-Feb-14 09:59N 34°35' E 138°28'612.1
2018-Feb-14 09:31N 34°35' E 138°34'611.9
2018-Feb-14 09:00N 34°35' E 138°42'611.2
2018-Feb-14 08:29N 34°35' E 138°49'510.5
2018-Feb-14 08:00N 34°35' E 138°55'811.2
2018-Feb-14 07:16N 34°40' E 139°02'311.2
2018-Feb-14 06:59N 34°43' E 139°05'610.6
2018-Feb-14 06:25N 34°48' E 139°09'810.7
2018-Feb-14 05:40N 34°53' E 139°16'2 9.9
2018-Feb-14 05:30N 34°54' E 139°18'5 9.2
2018-Feb-14 04:56N 34°57' E 139°23'4 9.0
2018-Feb-14 04:30N 34°59' E 139°27'510.1
2018-Feb-14 04:00N 35°02' E 139°32'612.3
2018-Feb-14 03:31N 35°05' E 139°39'612.9
2018-Feb-14 03:00N 35°10' E 139°44'612.3
2018-Feb-14 02:30N 35°16' E 139°46'612.7
2018-Feb-14 02:00N 35°21' E 139°42'3 6.1
2018-Feb-14 01:30N 35°24' E 139°41'0 0.0
2018-Feb-14 01:00N 35°24' E 139°41'0 0.0
2018-Feb-14 00:30N 35°24' E 139°41'0 0.0
2018-Feb-14 00:00N 35°24' E 139°41'0 0.0
2018-Feb-13 23:30N 35°24' E 139°41'1 2.3
2018-Feb-13 23:00N 35°23' E 139°42'2 4.5
2018-Feb-13 22:29N 35°23' E 139°44'0 0.0
2018-Feb-13 21:56N 35°23' E 139°44'0 0.0
2018-Feb-13 21:28N 35°23' E 139°44'0 0.0
2018-Feb-13 20:58N 35°23' E 139°44'0 0.0
2018-Feb-13 20:28N 35°23' E 139°44'0 0.0
2018-Feb-13 19:59N 35°23' E 139°44'0 0.1
2018-Feb-13 19:28N 35°23' E 139°45'0 0.0
2018-Feb-13 18:59N 35°23' E 139°45'0 0.1
2018-Feb-13 18:29N 35°23' E 139°45'0 0.0
2018-Feb-13 17:58N 35°23' E 139°45'0 0.1
2018-Feb-13 17:29N 35°23' E 139°45'0 0.1
2018-Feb-13 16:58N 35°23' E 139°44'0 0.0
2018-Feb-13 16:28N 35°23' E 139°44'0 0.1
2018-Feb-13 15:59N 35°23' E 139°44'0 0.0
2018-Feb-13 15:26N 35°23' E 139°44'0 0.1
2018-Feb-13 14:58N 35°23' E 139°44'0 0.0
2018-Feb-13 14:29N 35°23' E 139°44'0 0.1
2018-Feb-13 13:58N 35°23' E 139°44'0 0.1
2018-Feb-13 13:28N 35°23' E 139°44'0 0.0
2018-Feb-13 12:59N 35°23' E 139°44'0 0.0
2018-Feb-13 12:28N 35°23' E 139°44'0 0.0
2018-Feb-13 11:58N 35°23' E 139°44'0 0.0
2018-Feb-13 11:28N 35°23' E 139°44'0 0.0
2018-Feb-13 10:58N 35°23' E 139°44'0 0.0
2018-Feb-13 10:28N 35°23' E 139°44'0 0.1
2018-Feb-13 09:59N 35°23' E 139°45'0 0.1
2018-Feb-13 09:28N 35°23' E 139°45'0 0.1
2018-Feb-13 08:59N 35°23' E 139°45'0 0.0
2018-Feb-13 08:28N 35°23' E 139°45'0 0.0
2018-Feb-13 07:58N 35°23' E 139°45'0 0.0
2018-Feb-13 07:29N 35°23' E 139°45'0 0.0
2018-Feb-13 06:58N 35°23' E 139°45'0 0.1
2018-Feb-13 06:28N 35°23' E 139°45'0 0.0
2018-Feb-13 05:59N 35°23' E 139°45'0 0.0
2018-Feb-13 05:29N 35°23' E 139°45'0 0.0
2018-Feb-13 04:59N 35°23' E 139°45'0 0.0
2018-Feb-13 04:29N 35°23' E 139°45'0 0.0
2018-Feb-13 03:58N 35°23' E 139°45'0 0.0
2018-Feb-13 03:28N 35°23' E 139°45'0 0.0
2018-Feb-13 02:58N 35°23' E 139°45'0 0.0
2018-Feb-13 02:30N 35°23' E 139°45'4 7.1
2018-Feb-13 02:00N 35°26' E 139°47'610.8
2018-Feb-13 01:29N 35°31' E 139°50'510.1
2018-Feb-13 01:00N 35°35' E 139°47'1 2.1
2018-Feb-13 00:22N 35°36' E 139°46'0 0.0
2018-Feb-12 23:58N 35°36' E 139°46'0 0.0
2018-Feb-12 23:30N 35°36' E 139°46'3 6.0
2018-Feb-12 23:00N 35°34' E 139°49'3 3.8
2018-Feb-12 22:09N 35°33' E 139°53'0 0.0
2018-Feb-12 21:57N 35°33' E 139°53'0 0.1
2018-Feb-12 21:09N 35°33' E 139°53'0 0.0
2018-Feb-12 21:00N 35°33' E 139°53'0 0.1
2018-Feb-12 20:21N 35°33' E 139°53'0 0.0
2018-Feb-12 20:00N 35°33' E 139°53'0 0.1
2018-Feb-12 19:30N 35°33' E 139°53'0 0.0
2018-Feb-12 17:09N 35°33' E 139°53'0 0.0
2018-Feb-12 16:57N 35°33' E 139°53'0 0.0
2018-Feb-12 16:27N 35°33' E 139°53'0 0.0
2018-Feb-12 15:03N 35°33' E 139°53'0 0.0
2018-Feb-12 13:45N 35°33' E 139°53'0 0.0
2018-Feb-12 13:21N 35°33' E 139°53'0 0.0
2018-Feb-12 12:57N 35°33' E 139°53'0 0.0
2018-Feb-12 11:33N 35°33' E 139°53'0 0.0
2018-Feb-12 11:21N 35°33' E 139°53'0 0.0
2018-Feb-12 10:45N 35°33' E 139°53'0 0.0
2018-Feb-12 10:21N 35°33' E 139°53'0 0.0
2018-Feb-12 10:00N 35°33' E 139°53'0 0.0
2018-Feb-12 09:21N 35°33' E 139°53'0 0.0
2018-Feb-12 08:02N 35°33' E 139°53'0 0.2
2018-Feb-12 07:59N 35°33' E 139°53'2 5.0
2018-Feb-12 07:30N 35°31' E 139°53'611.7
2018-Feb-12 07:00N 35°26' E 139°48'612.1
2018-Feb-12 06:31N 35°21' E 139°45'510.4
2018-Feb-12 06:00N 35°16' E 139°47'611.6
2018-Feb-12 05:30N 35°10' E 139°47'611.5
2018-Feb-12 05:00N 35°05' E 139°44'612.3
2018-Feb-12 04:30N 35°01' E 139°38'712.4
2018-Feb-12 03:55N 34°57' E 139°31'613.4
2018-Feb-12 03:30N 34°54' E 139°25'714.4
2018-Feb-12 02:59N 34°50' E 139°18'713.9
2018-Feb-12 02:30N 34°45' E 139°12'813.3
2018-Feb-12 01:55N 34°40' E 139°05'712.7
2018-Feb-12 01:22N 34°36' E 138°58'612.6
2018-Feb-12 00:51N 34°35' E 138°50'512.5
2018-Feb-12 00:27N 34°35' E 138°44'512.0
2018-Feb-12 00:00N 34°40' E 138°40'611.5
2018-Feb-11 23:29N 34°46' E 138°39'511.3
2018-Feb-11 23:01N 34°51' E 138°38'611.1
2018-Feb-11 22:31N 34°56' E 138°36'611.3
2018-Feb-11 22:01N 35°01' E 138°33'2 4.1
2018-Feb-11 21:29N 35°02' E 138°30'0 0.0
2018-Feb-11 21:01N 35°02' E 138°30'0 0.0
2018-Feb-11 20:30N 35°02' E 138°30'0 0.0
2018-Feb-11 20:01N 35°02' E 138°30'0 0.0
2018-Feb-11 19:30N 35°02' E 138°30'0 0.0
2018-Feb-11 19:00N 35°02' E 138°30'1 1.2
2018-Feb-11 18:30N 35°02' E 138°31'4 7.6
2018-Feb-11 18:01N 34°58' E 138°33'612.2
2018-Feb-11 17:30N 34°53' E 138°30'612.1
2018-Feb-11 17:00N 34°48' E 138°26'712.0
2018-Feb-11 16:28N 34°42' E 138°22'611.9
2018-Feb-11 15:59N 34°37' E 138°19'511.1
2018-Feb-11 15:30N 34°33' E 138°15'912.4
2018-Feb-11 14:46N 34°33' E 138°03'  

Dump ship's entire track history